createdAt,value
2017-02-27T00:00:06.377Z,0
2017-02-27T00:01:06.388Z,0
2017-02-27T00:02:06.411Z,0
2017-02-27T00:03:06.319Z,0
2017-02-27T00:04:06.888Z,0
2017-02-27T00:05:06.500Z,0
2017-02-27T00:06:06.930Z,0
2017-02-27T00:07:06.151Z,0
2017-02-27T00:08:06.855Z,0
2017-02-27T00:09:07.008Z,0
2017-02-27T00:10:05.840Z,0
2017-02-27T00:11:05.478Z,0
2017-02-27T00:12:06.286Z,0
2017-02-27T00:13:06.979Z,0
2017-02-27T00:14:07.153Z,0
2017-02-27T00:15:06.396Z,0
2017-02-27T00:16:06.460Z,0
2017-02-27T00:17:06.422Z,0
2017-02-27T00:18:07.110Z,0
2017-02-27T00:19:07.287Z,0
2017-02-27T00:20:06.908Z,0
2017-02-27T00:21:06.951Z,0
2017-02-27T00:22:07.374Z,0
2017-02-27T00:23:05.803Z,0
2017-02-27T00:24:06.488Z,0
2017-02-27T00:25:07.457Z,0
2017-02-27T00:26:06.685Z,0
2017-02-27T00:27:07.549Z,0
2017-02-27T00:28:06.747Z,0
2017-02-27T00:29:07.279Z,0
2017-02-27T00:30:07.615Z,0
2017-02-27T00:31:07.624Z,0
2017-02-27T00:32:07.644Z,0
2017-02-27T00:33:06.481Z,0
2017-02-27T00:34:07.014Z,0
2017-02-27T00:35:06.546Z,0
2017-02-27T00:36:07.365Z,0
2017-02-27T00:37:06.990Z,0
2017-02-27T00:38:07.438Z,0
2017-02-27T00:39:07.311Z,0
2017-02-27T00:40:07.074Z,0
2017-02-27T00:41:07.549Z,0
2017-02-27T00:42:07.521Z,0
2017-02-27T00:43:07.578Z,0
2017-02-27T00:44:07.443Z,0
2017-02-27T00:45:07.219Z,0
2017-02-27T00:46:07.247Z,0
2017-02-27T00:47:06.457Z,0
2017-02-27T00:48:08.105Z,0
2017-02-27T00:49:07.973Z,0
2017-02-27T00:50:07.758Z,0
2017-02-27T00:51:07.384Z,0
2017-02-27T00:52:07.400Z,0
2017-02-27T00:53:07.049Z,0
2017-02-27T00:54:07.730Z,0
2017-02-27T00:55:07.487Z,0
2017-02-27T00:56:07.916Z,0
2017-02-27T00:57:07.937Z,0
2017-02-27T00:58:08.381Z,0
2017-02-27T00:59:08.265Z,0
2017-02-27T01:00:08.430Z,0
2017-02-27T01:01:07.667Z,0
2017-02-27T01:02:07.704Z,0
2017-02-27T01:03:07.721Z,0
2017-02-27T01:04:08.393Z,0
2017-02-27T01:05:07.798Z,0
2017-02-27T01:06:07.807Z,0
2017-02-27T01:07:07.828Z,0
2017-02-27T01:08:08.266Z,0
2017-02-27T01:09:08.525Z,0
2017-02-27T01:10:07.934Z,0
2017-02-27T01:11:07.938Z,0
2017-02-27T01:12:08.748Z,0
2017-02-27T01:13:08.444Z,0
2017-02-27T01:14:08.285Z,0
2017-02-27T01:15:08.062Z,0
2017-02-27T01:16:08.078Z,0
2017-02-27T01:17:08.491Z,0
2017-02-27T01:18:08.139Z,0
2017-02-27T01:19:08.673Z,0
2017-02-27T01:20:07.825Z,0
2017-02-27T01:21:07.819Z,0
2017-02-27T01:22:08.667Z,0
2017-02-27T01:23:08.264Z,0
2017-02-27T01:24:08.575Z,0
2017-02-27T01:25:08.337Z,0
2017-02-27T01:26:08.757Z,0
2017-02-27T01:27:08.371Z,0
2017-02-27T01:28:08.419Z,0
2017-02-27T01:29:09.100Z,0
2017-02-27T01:30:08.529Z,0
2017-02-27T01:31:08.490Z,0
2017-02-27T01:32:08.514Z,0
2017-02-27T01:33:08.956Z,0
2017-02-27T01:34:08.796Z,0
2017-02-27T01:48:40.590Z,0
2017-02-27T01:52:43.899Z,0
2017-02-27T01:52:53.486Z,0
2017-02-27T01:53:53.907Z,0
2017-02-27T01:54:53.140Z,0
2017-02-27T01:55:53.947Z,0
2017-02-27T01:56:53.034Z,0
2017-02-27T01:57:53.635Z,0
2017-02-27T01:58:53.242Z,0
2017-02-27T01:59:53.280Z,0
2017-02-27T02:00:53.705Z,0
2017-02-27T02:01:54.373Z,0
2017-02-27T02:02:54.562Z,0
2017-02-27T02:03:54.196Z,0
2017-02-27T02:04:54.592Z,0
2017-02-27T02:05:53.836Z,0
2017-02-27T02:06:53.313Z,0
2017-02-27T02:07:53.895Z,0
2017-02-27T02:08:53.934Z,0
2017-02-27T02:09:53.556Z,0
2017-02-27T02:10:54.364Z,0
2017-02-27T02:11:53.849Z,0
2017-02-27T02:12:54.810Z,0
2017-02-27T02:13:54.063Z,0
2017-02-27T02:14:54.896Z,0
2017-02-27T02:15:54.924Z,0
2017-02-27T02:16:54.403Z,0
2017-02-27T02:17:54.598Z,0
2017-02-27T02:18:54.221Z,0
2017-02-27T02:19:54.211Z,0
2017-02-27T02:20:54.657Z,0
2017-02-27T02:21:54.529Z,0
2017-02-27T02:22:53.509Z,0
2017-02-27T02:23:54.350Z,0
2017-02-27T02:24:53.967Z,0
2017-02-27T02:25:53.981Z,0
2017-02-27T02:26:54.668Z,0
2017-02-27T02:27:54.861Z,0
2017-02-27T02:28:55.259Z,0
2017-02-27T02:29:54.919Z,0
2017-02-27T02:30:54.936Z,0
2017-02-27T02:31:55.216Z,0
2017-02-27T02:32:54.985Z,0
2017-02-27T02:33:55.414Z,0
2017-02-27T02:34:55.040Z,0
2017-02-27T02:35:54.663Z,0
2017-02-27T02:36:55.333Z,0
2017-02-27T02:37:55.555Z,0
2017-02-27T02:38:55.534Z,0
2017-02-27T02:39:54.783Z,0
2017-02-27T02:40:54.799Z,0
2017-02-27T02:41:55.869Z,0
2017-02-27T02:42:55.661Z,0
2017-02-27T02:43:54.898Z,0
2017-02-27T02:44:55.311Z,0
2017-02-27T02:45:54.550Z,0
2017-02-27T02:46:55.224Z,0
2017-02-27T02:47:55.393Z,0
2017-02-27T02:48:55.030Z,0
2017-02-27T02:49:55.070Z,0
2017-02-27T02:50:55.087Z,0
2017-02-27T02:51:55.768Z,0
2017-02-27T02:52:54.740Z,0
2017-02-27T02:53:54.789Z,0
2017-02-27T02:54:55.194Z,0
2017-02-27T02:55:55.605Z,0
2017-02-27T02:56:55.886Z,0
2017-02-27T02:57:55.296Z,0
2017-02-27T02:58:55.713Z,0
2017-02-27T02:59:54.925Z,0
2017-02-27T03:00:54.563Z,0
2017-02-27T03:01:55.650Z,0
2017-02-27T03:02:55.805Z,0
2017-02-27T03:03:55.028Z,0
2017-02-27T03:04:55.057Z,0
2017-02-27T03:05:55.487Z,0
2017-02-27T03:06:56.171Z,0
2017-02-27T03:07:55.932Z,0
2017-02-27T03:08:55.989Z,0
2017-02-27T03:09:55.989Z,0
2017-02-27T03:10:56.014Z,0
2017-02-27T03:11:56.307Z,0
2017-02-27T03:12:55.678Z,0
2017-02-27T03:13:55.708Z,0
2017-02-27T03:14:55.725Z,0
2017-02-27T03:15:56.178Z,0
2017-02-27T03:16:56.046Z,0
2017-02-27T03:17:55.834Z,0
2017-02-27T03:18:55.456Z,0
2017-02-27T03:19:56.269Z,0
2017-02-27T03:20:55.901Z,0
2017-02-27T03:21:56.839Z,0
2017-02-27T03:22:55.970Z,0
2017-02-27T03:23:56.002Z,0
2017-02-27T03:24:56.004Z,0
2017-02-27T03:25:56.044Z,0
2017-02-27T03:26:56.073Z,0
2017-02-27T03:27:56.340Z,0
2017-02-27T03:28:56.531Z,0
2017-02-27T03:29:56.174Z,0
2017-02-27T03:30:56.193Z,0
2017-02-27T03:31:55.808Z,0
2017-02-27T03:32:56.102Z,0
2017-02-27T03:33:56.255Z,0
2017-02-27T03:34:56.288Z,0
2017-02-27T03:35:57.116Z,0
2017-02-27T03:36:57.145Z,0
2017-02-27T03:37:57.014Z,0
2017-02-27T03:38:56.807Z,0
2017-02-27T03:39:57.223Z,0
2017-02-27T03:40:55.640Z,0
2017-02-27T03:41:56.095Z,0
2017-02-27T03:42:57.555Z,0
2017-02-27T03:43:57.334Z,0
2017-02-27T03:44:56.947Z,0
2017-02-27T03:45:56.984Z,0
2017-02-27T03:46:56.256Z,0
2017-02-27T03:47:56.501Z,0
2017-02-27T03:48:57.066Z,0
2017-02-27T03:49:57.076Z,0
2017-02-27T03:50:56.736Z,0
2017-02-27T03:51:56.748Z,0
2017-02-27T03:52:56.636Z,0
2017-02-27T03:53:56.801Z,0
2017-02-27T03:54:57.242Z,0
2017-02-27T03:55:57.247Z,0
2017-02-27T03:56:56.880Z,0
2017-02-27T03:57:57.177Z,0
2017-02-27T03:58:56.561Z,0
2017-02-27T03:59:57.355Z,0
2017-02-27T04:00:57.003Z,0
2017-02-27T04:01:57.413Z,0
2017-02-27T04:02:57.690Z,0
2017-02-27T04:03:57.878Z,0
2017-02-27T04:04:57.493Z,0
2017-02-27T04:05:57.534Z,0
2017-02-27T04:06:57.564Z,0
2017-02-27T04:07:58.088Z,0
2017-02-27T04:08:57.213Z,0
2017-02-27T04:09:57.643Z,0
2017-02-27T04:10:57.259Z,0
2017-02-27T04:11:57.690Z,0
2017-02-27T04:12:57.568Z,0
2017-02-27T04:13:57.357Z,0
2017-02-27T04:14:56.969Z,0
2017-02-27T04:15:57.403Z,0
2017-02-27T04:16:57.431Z,0
2017-02-27T04:17:57.304Z,0
2017-02-27T04:18:57.489Z,0
2017-02-27T04:19:58.297Z,0
2017-02-27T04:20:57.942Z,0
2017-02-27T04:21:57.961Z,0
2017-02-27T04:22:58.239Z,0
2017-02-27T04:23:58.004Z,0
2017-02-27T04:24:58.053Z,0
2017-02-27T04:25:57.271Z,0
2017-02-27T04:26:58.494Z,0
2017-02-27T04:27:58.376Z,0
2017-02-27T04:28:58.164Z,0
2017-02-27T04:29:58.577Z,0
2017-02-27T04:30:58.598Z,0
2017-02-27T04:31:58.243Z,0
2017-02-27T04:32:58.119Z,0
2017-02-27T04:33:58.300Z,0
2017-02-27T04:34:57.529Z,0
2017-02-27T04:35:58.354Z,0
2017-02-27T04:36:58.371Z,0
2017-02-27T04:37:58.253Z,0
2017-02-27T04:38:57.232Z,0
2017-02-27T04:39:57.689Z,0
2017-02-27T04:40:58.074Z,0
2017-02-27T04:41:58.510Z,0
2017-02-27T04:42:59.187Z,0
2017-02-27T04:43:58.967Z,0
2017-02-27T04:44:58.584Z,0
2017-02-27T04:45:58.209Z,0
2017-02-27T04:46:58.649Z,0
2017-02-27T04:47:58.175Z,0
2017-02-27T04:48:58.311Z,0
2017-02-27T04:49:58.724Z,0
2017-02-27T04:50:58.393Z,0
2017-02-27T04:51:58.789Z,0
2017-02-27T04:52:58.661Z,0
2017-02-27T04:53:58.447Z,0
2017-02-27T04:54:58.880Z,0
2017-02-27T04:55:58.908Z,0
2017-02-27T04:56:58.129Z,0
2017-02-27T04:57:58.828Z,0
2017-02-27T04:58:58.618Z,0
2017-02-27T04:59:58.619Z,0
2017-02-27T05:00:58.264Z,0
2017-02-27T05:01:58.662Z,0
2017-02-27T05:02:59.337Z,0
2017-02-27T05:03:59.126Z,0
2017-02-27T05:04:59.131Z,0
2017-02-27T05:05:59.568Z,0
2017-02-27T05:06:59.203Z,0
2017-02-27T05:07:59.476Z,0
2017-02-27T05:08:58.854Z,0
2017-02-27T05:09:59.270Z,0
2017-02-27T05:10:59.707Z,0
2017-02-27T05:11:58.932Z,0
2017-02-27T05:12:59.993Z,0
2017-02-27T05:13:59.373Z,0
2017-02-27T05:14:59.438Z,0
2017-02-27T05:15:59.039Z,0
2017-02-27T05:16:59.075Z,0
2017-02-27T05:17:58.316Z,0
2017-02-27T05:18:59.377Z,0
2017-02-27T05:19:59.578Z,0
2017-02-27T05:20:59.175Z,0
2017-02-27T05:21:58.811Z,0
2017-02-27T05:22:59.640Z,0
2017-02-27T05:23:59.928Z,0
2017-02-27T05:24:59.729Z,0
2017-02-27T05:25:59.318Z,0
2017-02-27T05:26:59.754Z,0
2017-02-27T05:27:59.367Z,0
2017-02-27T05:28:59.260Z,0
2017-02-27T05:29:59.437Z,0
2017-02-27T05:30:59.457Z,0
2017-02-27T05:31:59.478Z,0
2017-02-27T05:32:59.510Z,0
2017-02-27T05:33:59.784Z,0
2017-02-27T05:35:00.359Z,0
2017-02-27T05:35:59.571Z,0
2017-02-27T05:37:00.402Z,0
2017-02-27T05:38:00.046Z,0
2017-02-27T05:38:59.923Z,0
2017-02-27T05:39:59.691Z,0
2017-02-27T05:40:59.322Z,0
2017-02-27T05:42:00.549Z,0
2017-02-27T05:42:59.766Z,0
2017-02-27T05:43:59.286Z,0
2017-02-27T05:44:59.843Z,0
2017-02-27T05:45:59.452Z,0
2017-02-27T05:46:59.501Z,0
2017-02-27T05:48:00.322Z,0
2017-02-27T05:49:00.191Z,0
2017-02-27T05:50:00.764Z,0
2017-02-27T05:51:00.793Z,0
2017-02-27T05:51:59.620Z,0
2017-02-27T05:53:00.049Z,0
2017-02-27T05:53:59.943Z,0
2017-02-27T05:55:00.508Z,0
2017-02-27T05:55:59.732Z,0
2017-02-27T05:57:00.188Z,0
2017-02-27T05:58:00.222Z,0
2017-02-27T05:59:01.259Z,0
2017-02-27T05:59:59.851Z,0
2017-02-27T06:00:59.868Z,0
2017-02-27T06:02:00.301Z,0
2017-02-27T06:03:00.726Z,0
2017-02-27T06:04:00.991Z,0
2017-02-27T06:05:00.779Z,0
2017-02-27T06:06:00.809Z,0
2017-02-27T06:07:00.028Z,0
2017-02-27T06:08:00.854Z,0
2017-02-27T06:09:00.742Z,0
2017-02-27T06:10:00.132Z,0
2017-02-27T06:11:00.548Z,0
2017-02-27T06:12:01.374Z,0
2017-02-27T06:13:00.997Z,0
2017-02-27T06:14:01.279Z,0
2017-02-27T06:15:00.667Z,0
2017-02-27T06:16:00.312Z,0
2017-02-27T06:17:01.109Z,0
2017-02-27T06:18:01.526Z,0
2017-02-27T06:19:01.415Z,0
2017-02-27T06:20:01.186Z,0
2017-02-27T06:21:01.619Z,0
2017-02-27T06:22:00.436Z,0
2017-02-27T06:23:00.888Z,0
2017-02-27T06:24:01.550Z,0
2017-02-27T06:25:00.911Z,0
2017-02-27T06:26:01.368Z,0
2017-02-27T06:27:01.772Z,0
2017-02-27T06:28:01.002Z,0
2017-02-27T06:29:00.894Z,0
2017-02-27T06:30:01.083Z,0
2017-02-27T06:31:01.088Z,0
2017-02-27T06:32:01.520Z,0
2017-02-27T06:33:01.545Z,0
2017-02-27T06:34:01.419Z,0
2017-02-27T06:35:01.996Z,0
2017-02-27T06:36:01.611Z,0
2017-02-27T06:37:01.265Z,0
2017-02-27T06:38:01.273Z,0
2017-02-27T06:39:01.978Z,0
2017-02-27T06:40:01.347Z,0
2017-02-27T06:41:01.363Z,0
2017-02-27T06:42:01.408Z,0
2017-02-27T06:43:01.013Z,0
2017-02-27T06:44:01.694Z,0
2017-02-27T06:45:01.078Z,0
2017-02-27T06:46:01.503Z,0
2017-02-27T06:47:01.920Z,0
2017-02-27T06:48:01.950Z,0
2017-02-27T06:49:02.634Z,0
2017-02-27T06:50:02.399Z,0
2017-02-27T06:51:02.452Z,0
2017-02-27T06:52:02.448Z,0
2017-02-27T06:53:01.700Z,0
2017-02-27T06:54:01.970Z,0
2017-02-27T06:55:02.166Z,0
2017-02-27T06:56:01.383Z,0
2017-02-27T06:57:02.619Z,0
2017-02-27T06:58:02.625Z,0
2017-02-27T06:59:01.074Z,0
2017-02-27T07:00:02.945Z,0
2017-02-27T07:01:01.124Z,0
2017-02-27T07:02:02.332Z,0
2017-02-27T07:03:01.985Z,0
2017-02-27T07:04:02.013Z,0
2017-02-27T07:05:02.271Z,0
2017-02-27T07:06:02.055Z,0
2017-02-27T07:07:02.095Z,0
2017-02-27T07:08:02.917Z,0
2017-02-27T07:09:02.130Z,0
2017-02-27T07:10:02.411Z,0
2017-02-27T07:11:02.606Z,0
2017-02-27T07:12:01.844Z,0
2017-02-27T07:13:02.657Z,0
2017-02-27T07:14:02.677Z,0
2017-02-27T07:15:03.342Z,0
2017-02-27T07:16:02.731Z,0
2017-02-27T07:17:01.568Z,0
2017-02-27T07:18:02.372Z,0
2017-02-27T07:19:02.407Z,0
2017-02-27T07:20:03.085Z,0
2017-02-27T07:21:02.879Z,0
2017-02-27T07:22:02.889Z,0
2017-02-27T07:23:02.949Z,0
2017-02-27T07:24:02.153Z,0
2017-02-27T07:25:03.209Z,0
2017-02-27T07:26:02.994Z,5
2017-02-27T07:27:02.231Z,5
2017-02-27T07:28:01.860Z,5
2017-02-27T07:29:02.665Z,5
2017-02-27T07:30:03.364Z,5
2017-02-27T07:31:03.166Z,5
2017-02-27T07:32:03.560Z,5
2017-02-27T07:33:02.422Z,5
2017-02-27T07:34:03.257Z,5
2017-02-27T07:35:03.793Z,5
2017-02-27T07:36:02.877Z,5
2017-02-27T07:37:02.904Z,5
2017-02-27T07:38:03.725Z,5
2017-02-27T07:39:03.338Z,5
2017-02-27T07:40:03.881Z,5
2017-02-27T07:41:03.026Z,5
2017-02-27T07:42:03.827Z,10
2017-02-27T07:43:03.071Z,10
2017-02-27T07:44:03.089Z,15
2017-02-27T07:45:02.988Z,15
2017-02-27T07:46:03.542Z,15
2017-02-27T07:47:03.207Z,15
2017-02-27T07:48:03.232Z,15
2017-02-27T07:49:03.225Z,15
2017-02-27T07:50:03.537Z,15
2017-02-27T07:51:03.682Z,15
2017-02-27T07:52:02.943Z,15
2017-02-27T07:53:03.362Z,15
2017-02-27T07:54:03.357Z,10
2017-02-27T07:55:04.061Z,10
2017-02-27T07:56:03.821Z,15
2017-02-27T07:57:03.871Z,15
2017-02-27T07:58:03.503Z,15
2017-02-27T07:59:03.121Z,15
2017-02-27T08:00:03.785Z,15
2017-02-27T08:01:03.970Z,15
2017-02-27T08:02:03.990Z,15
2017-02-27T08:03:03.230Z,15
2017-02-27T08:04:03.646Z,15
2017-02-27T08:05:03.920Z,15
2017-02-27T08:06:03.706Z,15
2017-02-27T08:07:03.360Z,15
2017-02-27T08:08:04.167Z,15
2017-02-27T08:09:04.573Z,15
2017-02-27T08:10:04.452Z,15
2017-02-27T08:11:04.670Z,15
2017-02-27T08:12:03.867Z,10
2017-02-27T08:13:03.506Z,10
2017-02-27T08:14:03.148Z,15
2017-02-27T08:15:04.601Z,20
2017-02-27T08:16:04.383Z,15
2017-02-27T08:17:04.006Z,15
2017-02-27T08:18:04.467Z,15
2017-02-27T08:19:04.079Z,15
2017-02-27T08:20:04.336Z,15
2017-02-27T08:21:03.729Z,15
2017-02-27T08:22:04.150Z,15
2017-02-27T08:23:04.567Z,15
2017-02-27T08:24:05.002Z,15
2017-02-27T08:25:05.272Z,15
2017-02-27T08:26:04.250Z,20
2017-02-27T08:27:04.317Z,20
2017-02-27T08:28:03.906Z,25
2017-02-27T08:29:04.331Z,25
2017-02-27T08:30:04.392Z,20
2017-02-27T08:31:05.297Z,15
2017-02-27T08:32:04.081Z,15
2017-02-27T08:33:04.846Z,15
2017-02-27T08:34:04.090Z,20
2017-02-27T08:35:04.896Z,25
2017-02-27T08:36:04.816Z,50
2017-02-27T08:37:04.974Z,55
2017-02-27T08:38:04.591Z,55
2017-02-27T08:39:05.011Z,50
2017-02-27T08:40:05.442Z,65
2017-02-27T08:41:05.728Z,65
2017-02-27T08:42:05.121Z,70
2017-02-27T08:43:04.734Z,80
2017-02-27T08:44:05.146Z,80
2017-02-27T08:45:03.995Z,75
2017-02-27T08:46:05.060Z,80
2017-02-27T08:47:05.233Z,55
2017-02-27T08:48:04.477Z,70
2017-02-27T08:49:04.510Z,90
2017-02-27T08:50:04.521Z,90
2017-02-27T08:51:04.812Z,95
2017-02-27T08:52:05.393Z,90
2017-02-27T08:53:05.410Z,90
2017-02-27T08:54:05.034Z,85
2017-02-27T08:55:05.464Z,95
2017-02-27T08:56:05.748Z,40
2017-02-27T08:57:05.533Z,75
2017-02-27T08:58:05.177Z,35
2017-02-27T08:59:05.190Z,25
2017-02-27T09:00:05.616Z,65
2017-02-27T09:01:05.495Z,65
2017-02-27T09:02:05.264Z,65
2017-02-27T09:03:05.693Z,65
2017-02-27T09:04:05.324Z,45
2017-02-27T09:05:04.976Z,55
2017-02-27T09:06:05.631Z,65
2017-02-27T09:07:05.004Z,30
2017-02-27T09:08:05.037Z,30
2017-02-27T09:09:05.465Z,35
2017-02-27T09:10:06.269Z,30
2017-02-27T09:11:05.779Z,30
2017-02-27T09:12:06.332Z,30
2017-02-27T09:13:05.977Z,30
2017-02-27T09:14:05.229Z,25
2017-02-27T09:15:04.834Z,30
2017-02-27T09:16:06.325Z,55
2017-02-27T09:17:05.695Z,40
2017-02-27T09:18:06.520Z,40
2017-02-27T09:19:06.569Z,35
2017-02-27T09:20:06.164Z,40
2017-02-27T09:21:05.259Z,30
2017-02-27T09:22:05.820Z,30
2017-02-27T09:23:05.850Z,25
2017-02-27T09:24:06.701Z,30
2017-02-27T09:25:06.322Z,35
2017-02-27T09:26:06.442Z,35
2017-02-27T09:27:06.387Z,35
2017-02-27T09:28:05.227Z,35
2017-02-27T09:29:06.440Z,35
2017-02-27T09:30:06.865Z,35
2017-02-27T09:31:06.725Z,35
2017-02-27T09:32:06.519Z,30
2017-02-27T09:33:06.180Z,30
2017-02-27T09:34:06.164Z,30
2017-02-27T09:35:05.829Z,35
2017-02-27T09:36:06.332Z,35
2017-02-27T09:37:05.867Z,35
2017-02-27T09:38:06.679Z,35
2017-02-27T09:39:06.316Z,40
2017-02-27T09:40:06.341Z,40
2017-02-27T09:41:07.430Z,45
2017-02-27T09:42:07.191Z,40
2017-02-27T09:43:06.019Z,40
2017-02-27T09:44:06.848Z,45
2017-02-27T09:45:06.505Z,60
2017-02-27T09:46:07.184Z,45
2017-02-27T09:47:06.154Z,50
2017-02-27T09:48:06.167Z,45
2017-02-27T09:49:06.580Z,40
2017-02-27T09:50:06.627Z,40
2017-02-27T09:51:06.517Z,45
2017-02-27T09:52:07.074Z,40
2017-02-27T09:53:06.711Z,35
2017-02-27T09:54:07.512Z,40
2017-02-27T09:55:07.576Z,45
2017-02-27T09:56:07.329Z,40
2017-02-27T09:57:07.222Z,40
2017-02-27T09:58:06.865Z,45
2017-02-27T09:59:06.891Z,50
2017-02-27T10:00:06.894Z,45
2017-02-27T10:01:06.633Z,40
2017-02-27T10:02:06.986Z,65
2017-02-27T10:03:07.787Z,70
2017-02-27T10:04:07.034Z,50
2017-02-27T10:05:07.464Z,50
2017-02-27T10:06:07.717Z,45
2017-02-27T10:07:07.101Z,45
2017-02-27T10:08:07.934Z,45
2017-02-27T10:09:07.555Z,45
2017-02-27T10:10:07.979Z,50
2017-02-27T10:11:07.124Z,55
2017-02-27T10:12:07.233Z,50
2017-02-27T10:13:07.274Z,60
2017-02-27T10:14:07.301Z,60
2017-02-27T10:15:07.728Z,45
2017-02-27T10:16:07.689Z,35
2017-02-27T10:17:08.177Z,65
2017-02-27T10:18:07.412Z,60
2017-02-27T10:19:07.447Z,65
2017-02-27T10:20:07.868Z,60
2017-02-27T10:21:07.368Z,65
2017-02-27T10:22:07.939Z,45
2017-02-27T10:23:07.586Z,55
2017-02-27T10:24:07.983Z,40
2017-02-27T10:25:08.024Z,35
2017-02-27T10:26:08.127Z,55
2017-02-27T10:27:07.657Z,60
2017-02-27T10:28:08.513Z,65
2017-02-27T10:29:07.321Z,65
2017-02-27T10:30:07.382Z,40
2017-02-27T10:31:08.076Z,50
2017-02-27T10:32:07.811Z,45
2017-02-27T10:33:07.844Z,45
2017-02-27T10:34:07.478Z,45
2017-02-27T10:35:07.886Z,45
2017-02-27T10:36:08.948Z,55
2017-02-27T10:37:07.966Z,70
2017-02-27T10:38:08.797Z,65
2017-02-27T10:39:08.006Z,65
2017-02-27T10:40:08.446Z,55
2017-02-27T10:41:08.616Z,55
2017-02-27T10:42:08.100Z,50
2017-02-27T10:43:08.129Z,50
2017-02-27T10:44:07.768Z,45
2017-02-27T10:45:08.187Z,55
2017-02-27T10:46:08.862Z,60
2017-02-27T10:47:08.644Z,35
2017-02-27T10:48:08.265Z,55
2017-02-27T10:49:08.306Z,50
2017-02-27T10:50:09.111Z,40
2017-02-27T10:51:08.982Z,40
2017-02-27T10:52:08.772Z,65
2017-02-27T10:53:08.412Z,70
2017-02-27T10:54:08.450Z,70
2017-02-27T10:55:08.886Z,35
2017-02-27T10:56:08.382Z,70
2017-02-27T10:57:08.936Z,65
2017-02-27T10:58:08.576Z,75
2017-02-27T10:59:08.169Z,65
2017-02-27T11:00:08.205Z,60
2017-02-27T11:01:09.143Z,35
2017-02-27T11:02:08.267Z,60
2017-02-27T11:03:08.699Z,65
2017-02-27T11:04:09.121Z,65
2017-02-27T11:05:09.146Z,70
2017-02-27T11:06:09.430Z,70
2017-02-27T11:07:08.819Z,75
2017-02-27T11:08:09.236Z,65
2017-02-27T11:09:09.677Z,80
2017-02-27T11:10:09.693Z,55
2017-02-27T11:11:09.846Z,40
2017-02-27T11:12:09.359Z,35
2017-02-27T11:13:08.611Z,35
2017-02-27T11:14:09.012Z,35
2017-02-27T11:15:09.049Z,50
2017-02-27T11:16:09.714Z,55
2017-02-27T11:17:09.502Z,60
2017-02-27T11:18:09.119Z,45
2017-02-27T11:19:09.185Z,60
2017-02-27T11:20:09.189Z,65
2017-02-27T11:21:09.858Z,50
2017-02-27T11:22:09.620Z,45
2017-02-27T11:23:10.088Z,35
2017-02-27T11:24:09.684Z,35
2017-02-27T11:25:09.716Z,40
2017-02-27T11:26:10.026Z,55
2017-02-27T11:27:09.794Z,45
2017-02-27T11:28:09.817Z,40
2017-02-27T11:29:09.848Z,35
2017-02-27T11:30:09.084Z,30
2017-02-27T11:31:10.153Z,30
2017-02-27T11:32:08.726Z,25
2017-02-27T11:33:09.955Z,15
2017-02-27T11:34:09.580Z,15
2017-02-27T11:35:09.596Z,15
2017-02-27T11:36:09.496Z,15
2017-02-27T11:37:10.058Z,15
2017-02-27T11:38:10.491Z,20
2017-02-27T11:39:10.112Z,20
2017-02-27T11:40:09.745Z,20
2017-02-27T11:41:10.420Z,20
2017-02-27T11:42:09.810Z,25
2017-02-27T11:43:09.848Z,20
2017-02-27T11:44:09.875Z,20
2017-02-27T11:45:09.491Z,15
2017-02-27T11:46:10.176Z,10
2017-02-27T11:47:10.377Z,15
2017-02-27T11:48:09.982Z,10
2017-02-27T11:49:10.006Z,10
2017-02-27T11:50:10.444Z,15
2017-02-27T11:51:10.153Z,10
2017-02-27T11:52:10.118Z,10
2017-02-27T11:53:10.918Z,10
2017-02-27T11:54:09.359Z,10
2017-02-27T11:55:10.568Z,10
2017-02-27T11:56:11.258Z,15
2017-02-27T11:57:10.636Z,10
2017-02-27T11:58:11.058Z,10
2017-02-27T11:59:10.291Z,15
2017-02-27T12:00:11.132Z,20
2017-02-27T12:01:10.756Z,15
2017-02-27T12:02:10.889Z,15
2017-02-27T12:03:10.014Z,15
2017-02-27T12:04:10.430Z,15
2017-02-27T12:05:10.459Z,25
2017-02-27T12:06:10.880Z,25
2017-02-27T12:07:11.553Z,20
2017-02-27T12:08:10.133Z,20
2017-02-27T12:09:11.370Z,15
2017-02-27T12:10:11.407Z,10
2017-02-27T12:11:11.020Z,10
2017-02-27T12:12:10.133Z,10
2017-02-27T12:13:10.321Z,15
2017-02-27T12:14:10.318Z,15
2017-02-27T12:15:11.138Z,15
2017-02-27T12:16:10.772Z,15
2017-02-27T12:17:11.469Z,15
2017-02-27T12:18:11.229Z,15
2017-02-27T12:19:11.270Z,20
2017-02-27T12:20:11.691Z,20
2017-02-27T12:21:10.535Z,20
2017-02-27T12:22:11.200Z,15
2017-02-27T12:23:10.977Z,20
2017-02-27T12:24:11.010Z,20
2017-02-27T12:25:11.814Z,20
2017-02-27T12:26:11.455Z,25
2017-02-27T12:27:12.139Z,40
2017-02-27T12:28:11.908Z,25
2017-02-27T12:29:11.129Z,20
2017-02-27T12:30:11.978Z,20
2017-02-27T12:31:11.230Z,35
2017-02-27T12:32:11.855Z,35
2017-02-27T12:33:11.249Z,35
2017-02-27T12:34:11.681Z,35
2017-02-27T12:35:12.116Z,35
2017-02-27T12:36:11.750Z,20
2017-02-27T12:37:11.607Z,20
2017-02-27T12:38:12.184Z,20
2017-02-27T12:39:12.221Z,50
2017-02-27T12:40:12.250Z,40
2017-02-27T12:41:11.479Z,35
2017-02-27T12:42:11.753Z,40
2017-02-27T12:43:11.522Z,25
2017-02-27T12:44:11.556Z,45
2017-02-27T12:45:11.972Z,55
2017-02-27T12:46:11.213Z,80
2017-02-27T12:47:11.905Z,45
2017-02-27T12:48:11.675Z,85
2017-02-27T12:49:11.700Z,35
2017-02-27T12:50:12.132Z,20
2017-02-27T12:51:12.158Z,20
2017-02-27T12:52:12.846Z,15
2017-02-27T12:53:11.819Z,25
2017-02-27T12:54:12.240Z,40
2017-02-27T12:55:12.268Z,35
2017-02-27T12:56:11.905Z,25
2017-02-27T12:57:12.174Z,15
2017-02-27T12:58:11.939Z,15
2017-02-27T12:59:11.589Z,25
2017-02-27T13:00:11.604Z,40
2017-02-27T13:01:11.657Z,55
2017-02-27T13:02:12.305Z,40
2017-02-27T13:03:12.086Z,35
2017-02-27T13:04:12.532Z,25
2017-02-27T13:05:11.784Z,40
2017-02-27T13:06:12.568Z,40
2017-02-27T13:07:13.257Z,40
2017-02-27T13:08:13.035Z,50
2017-02-27T13:09:12.667Z,65
2017-02-27T13:10:11.907Z,50
2017-02-27T13:11:12.728Z,45
2017-02-27T13:12:12.209Z,50
2017-02-27T13:13:12.768Z,45
2017-02-27T13:14:12.807Z,45
2017-02-27T13:15:12.836Z,25
2017-02-27T13:16:13.248Z,40
2017-02-27T13:17:13.169Z,35
2017-02-27T13:18:11.734Z,40
2017-02-27T13:19:12.582Z,45
2017-02-27T13:20:13.379Z,50
2017-02-27T13:21:13.012Z,30
2017-02-27T13:22:12.905Z,35
2017-02-27T13:23:12.654Z,25
2017-02-27T13:24:13.082Z,35
2017-02-27T13:25:12.743Z,35
2017-02-27T13:26:13.144Z,35
2017-02-27T13:27:13.414Z,35
2017-02-27T13:28:13.608Z,35
2017-02-27T13:29:12.839Z,45
2017-02-27T13:30:13.283Z,25
2017-02-27T13:31:13.667Z,20
2017-02-27T13:32:13.164Z,15
2017-02-27T13:33:12.950Z,20
2017-02-27T13:34:13.780Z,20
2017-02-27T13:35:13.783Z,20
2017-02-27T13:36:13.835Z,30
2017-02-27T13:37:13.692Z,30
2017-02-27T13:38:13.885Z,30
2017-02-27T13:39:13.122Z,45
2017-02-27T13:40:12.786Z,65
2017-02-27T13:41:12.775Z,45
2017-02-27T13:42:13.860Z,50
2017-02-27T13:43:14.018Z,45
2017-02-27T13:44:13.651Z,25
2017-02-27T13:45:13.274Z,35
2017-02-27T13:46:12.915Z,40
2017-02-27T13:47:13.575Z,45
2017-02-27T13:48:14.157Z,40
2017-02-27T13:49:13.410Z,40
2017-02-27T13:50:13.859Z,35
2017-02-27T13:51:14.243Z,30
2017-02-27T13:52:14.120Z,35
2017-02-27T13:53:13.116Z,20
2017-02-27T13:54:13.954Z,25
2017-02-27T13:55:13.570Z,35
2017-02-27T13:56:13.190Z,35
2017-02-27T13:57:14.267Z,30
2017-02-27T13:58:14.036Z,25
2017-02-27T13:59:13.676Z,25
2017-02-27T14:00:14.103Z,25
2017-02-27T14:01:14.123Z,20
2017-02-27T14:02:14.023Z,20
2017-02-27T14:03:14.589Z,15
2017-02-27T14:04:14.619Z,15
2017-02-27T14:05:14.237Z,10
2017-02-27T14:06:14.265Z,15
2017-02-27T14:07:14.545Z,10
2017-02-27T14:08:14.743Z,10
2017-02-27T14:09:13.192Z,10
2017-02-27T14:10:13.993Z,5
2017-02-27T14:11:14.430Z,10
2017-02-27T14:12:13.659Z,5
2017-02-27T14:13:13.927Z,5
2017-02-27T14:14:14.106Z,5
2017-02-27T14:15:14.125Z,10
2017-02-27T14:16:14.150Z,5
2017-02-27T14:17:14.583Z,5
2017-02-27T14:18:14.843Z,5
2017-02-27T14:19:14.240Z,5
2017-02-27T14:20:14.680Z,10
2017-02-27T14:21:15.100Z,10
2017-02-27T14:22:15.137Z,10
2017-02-27T14:23:14.223Z,15
2017-02-27T14:24:14.799Z,10
2017-02-27T14:25:14.415Z,10
2017-02-27T14:26:14.836Z,10
2017-02-27T14:27:14.473Z,10
2017-02-27T14:28:14.355Z,10
2017-02-27T14:29:14.531Z,10
2017-02-27T14:30:15.339Z,10
2017-02-27T14:31:14.973Z,10
2017-02-27T14:32:15.402Z,10
2017-02-27T14:33:14.881Z,10
2017-02-27T14:34:14.651Z,15
2017-02-27T14:35:15.075Z,10
2017-02-27T14:36:14.328Z,10
2017-02-27T14:37:15.140Z,10
2017-02-27T14:38:15.441Z,10
2017-02-27T14:39:15.191Z,10
2017-02-27T14:40:15.639Z,5
2017-02-27T14:41:14.471Z,5
2017-02-27T14:42:14.901Z,5
2017-02-27T14:43:14.781Z,5
2017-02-27T14:44:14.942Z,5
2017-02-27T14:45:15.755Z,5
2017-02-27T14:46:15.784Z,5
2017-02-27T14:47:15.024Z,5
2017-02-27T14:48:15.295Z,5